Sanko Independence — A8QJ9 — position and weather

sailwx.info

Track history (hours):
 
Tides and Currents Weather Stations Pressure Air Temp Water Temp Dewpoint Dewpoint Depression Visibility Wind Speed Wind Dir Waves Ship Positions

Sanko Independence

Last reported at 2017-Jan-02 14:10 UTC. Time now 2017-Jan-25 01:23 UTC.
Position N 10°50' W 062°10'.
Warning: this ship's position is 22 days out of date.

Length 174 m; draft 10.2 m.

Type: Ship (hazmat cat C). MMSI: 636013946.

Date/timePositionNaut miles runAvg speedWind from/ knotsBaromVisibWave heightAir tempDewpointWater temp
2017-Jan-02 14:10N 10°50' W 062°10'1015.9
2017-Jan-02 13:32N 10°49' W 062°00'1414.7
2017-Jan-02 12:33N 10°42' W 061°47'1515.3
2017-Jan-02 11:33N 10°29' W 061°39'1010.3
2017-Jan-02 10:33N 10°24' W 061°30'0 0.3
2017-Jan-02 09:31N 10°24' W 061°30'0 0.0
2017-Jan-02 08:31N 10°24' W 061°30'0 0.0
2017-Jan-02 07:31N 10°24' W 061°30'0 0.0
2017-Jan-02 06:31N 10°24' W 061°30'0 0.0
2017-Jan-02 05:31N 10°24' W 061°30'0 0.0
2017-Jan-02 04:31N 10°24' W 061°30'0 0.0
2017-Jan-02 03:31N 10°24' W 061°30'0 0.0
2017-Jan-02 02:28N 10°24' W 061°30'0 0.0
2017-Jan-02 01:31N 10°24' W 061°30'0 0.0
2017-Jan-02 00:31N 10°24' W 061°30'0 0.0
2017-Jan-01 23:31N 10°24' W 061°30'0 0.0
2017-Jan-01 22:31N 10°24' W 061°30'0 0.0
2017-Jan-01 21:28N 10°24' W 061°30'0 0.0
2017-Jan-01 20:31N 10°24' W 061°30'0 0.0
2017-Jan-01 19:31N 10°24' W 061°30'0 0.0
2017-Jan-01 18:31N 10°24' W 061°30'0 0.0
2017-Jan-01 17:31N 10°24' W 061°30'0 0.0
2017-Jan-01 16:31N 10°24' W 061°30'0 0.0
2017-Jan-01 15:31N 10°24' W 061°30'0 0.0
2017-Jan-01 14:31N 10°24' W 061°30'0 0.0
2017-Jan-01 13:31N 10°24' W 061°30'0 0.0
2017-Jan-01 12:31N 10°24' W 061°30'0 0.0
2017-Jan-01 11:31N 10°24' W 061°30'0 0.0
2017-Jan-01 10:31N 10°24' W 061°30'0 0.0
2017-Jan-01 09:31N 10°24' W 061°30'0 0.0
2017-Jan-01 08:31N 10°24' W 061°30'0 0.0
2017-Jan-01 07:31N 10°24' W 061°30'0 0.0
2017-Jan-01 06:31N 10°24' W 061°30'0 0.0
2017-Jan-01 05:31N 10°24' W 061°30'0 0.0
2017-Jan-01 04:31N 10°24' W 061°30'0 0.0
2017-Jan-01 03:31N 10°24' W 061°30'1 0.5
2017-Jan-01 02:33N 10°24' W 061°30'6 5.5
2017-Jan-01 01:33N 10°22' W 061°35'1 1.4
2017-Jan-01 00:33N 10°22' W 061°37'9 8.8
2016-Dec-31 23:34N 10°30' W 061°40'1515.0
2016-Dec-31 22:34N 10°43' W 061°48'1414.0
2016-Dec-31 21:34N 10°48' W 062°01'1515.2
2016-Dec-31 20:34N 10°51' W 062°16'  
Track history (hours):
 
Tides and Currents Weather Stations Pressure Air Temp Water Temp Dewpoint Dewpoint Depression Visibility Wind Speed Wind Dir Waves Ship Positions

Sanko Independence

Last reported at 2017-Jan-02 14:10 UTC. Time now 2017-Jan-25 01:24 UTC.
Position N 10°50' W 062°10'.
Warning: this ship's position is 22 days out of date.

Length 174 m; draft 10.2 m.

Type: Ship (hazmat cat C). MMSI: 636013946.

Date/timePositionNaut miles runAvg speedWind from/ knotsBaromVisibWave heightAir tempDewpointWater temp
2017-Jan-02 14:10N 10°50' W 062°10'1015.9
2017-Jan-02 13:32N 10°49' W 062°00'1414.7
2017-Jan-02 12:33N 10°42' W 061°47'1515.3
2017-Jan-02 11:33N 10°29' W 061°39'1010.3
2017-Jan-02 10:33N 10°24' W 061°30'0 0.3
2017-Jan-02 09:31N 10°24' W 061°30'0 0.0
2017-Jan-02 08:31N 10°24' W 061°30'0 0.0
2017-Jan-02 07:31N 10°24' W 061°30'0 0.0
2017-Jan-02 06:31N 10°24' W 061°30'0 0.0
2017-Jan-02 05:31N 10°24' W 061°30'0 0.0
2017-Jan-02 04:31N 10°24' W 061°30'0 0.0
2017-Jan-02 03:31N 10°24' W 061°30'0 0.0
2017-Jan-02 02:28N 10°24' W 061°30'0 0.0
2017-Jan-02 01:31N 10°24' W 061°30'0 0.0
2017-Jan-02 00:31N 10°24' W 061°30'0 0.0
2017-Jan-01 23:31N 10°24' W 061°30'0 0.0
2017-Jan-01 22:31N 10°24' W 061°30'0 0.0
2017-Jan-01 21:28N 10°24' W 061°30'0 0.0
2017-Jan-01 20:31N 10°24' W 061°30'0 0.0
2017-Jan-01 19:31N 10°24' W 061°30'0 0.0
2017-Jan-01 18:31N 10°24' W 061°30'0 0.0
2017-Jan-01 17:31N 10°24' W 061°30'0 0.0
2017-Jan-01 16:31N 10°24' W 061°30'0 0.0
2017-Jan-01 15:31N 10°24' W 061°30'0 0.0
2017-Jan-01 14:31N 10°24' W 061°30'0 0.0
2017-Jan-01 13:31N 10°24' W 061°30'0 0.0
2017-Jan-01 12:31N 10°24' W 061°30'0 0.0
2017-Jan-01 11:31N 10°24' W 061°30'0 0.0
2017-Jan-01 10:31N 10°24' W 061°30'0 0.0
2017-Jan-01 09:31N 10°24' W 061°30'0 0.0
2017-Jan-01 08:31N 10°24' W 061°30'0 0.0
2017-Jan-01 07:31N 10°24' W 061°30'0 0.0
2017-Jan-01 06:31N 10°24' W 061°30'0 0.0
2017-Jan-01 05:31N 10°24' W 061°30'0 0.0
2017-Jan-01 04:31N 10°24' W 061°30'0 0.0
2017-Jan-01 03:31N 10°24' W 061°30'1 0.5
2017-Jan-01 02:33N 10°24' W 061°30'6 5.5
2017-Jan-01 01:33N 10°22' W 061°35'1 1.4
2017-Jan-01 00:33N 10°22' W 061°37'9 8.8
2016-Dec-31 23:34N 10°30' W 061°40'1515.0
2016-Dec-31 22:34N 10°43' W 061°48'1414.0
2016-Dec-31 21:34N 10°48' W 062°01'1515.2
2016-Dec-31 20:34N 10°51' W 062°16'  

Dump ship's entire track history